createdAt,value
2023-05-16T00:00:34.752Z,0
2023-05-16T00:04:00.126Z,0
2023-05-16T00:07:25.223Z,0
2023-05-16T00:10:50.487Z,0
2023-05-16T00:14:15.784Z,0
2023-05-16T00:17:41.054Z,0
2023-05-16T00:21:06.228Z,0
2023-05-16T00:24:31.428Z,0
2023-05-16T00:27:56.655Z,0
2023-05-16T00:31:21.932Z,0
2023-05-16T00:34:47.105Z,0
2023-05-16T00:38:12.374Z,0
2023-05-16T00:41:37.574Z,0
2023-05-16T00:45:02.800Z,0
2023-05-16T00:48:28.030Z,0
2023-05-16T00:51:53.252Z,0
2023-05-16T00:55:18.518Z,0
2023-05-16T00:58:43.750Z,0
2023-05-16T01:02:09.009Z,0
2023-05-16T01:05:34.229Z,0
2023-05-16T01:08:59.437Z,0
2023-05-16T01:12:24.714Z,0
2023-05-16T01:15:50.004Z,0
2023-05-16T01:19:15.330Z,0
2023-05-16T01:22:40.470Z,0
2023-05-16T01:26:05.699Z,0
2023-05-16T01:29:30.949Z,0
2023-05-16T01:32:56.186Z,0
2023-05-16T01:36:21.409Z,0
2023-05-16T01:39:46.645Z,0
2023-05-16T01:43:11.862Z,0
2023-05-16T01:46:37.110Z,0
2023-05-16T01:50:02.292Z,0
2023-05-16T01:53:27.510Z,0
2023-05-16T01:56:52.726Z,0
2023-05-16T02:00:17.951Z,0
2023-05-16T02:03:43.308Z,0
2023-05-16T02:07:08.461Z,0
2023-05-16T02:10:33.698Z,0
2023-05-16T02:13:58.930Z,0
2023-05-16T02:17:24.206Z,0
2023-05-16T02:20:49.431Z,0
2023-05-16T02:24:14.636Z,0
2023-05-16T02:27:39.887Z,0
2023-05-16T02:31:05.133Z,0
2023-05-16T02:34:30.367Z,0
2023-05-16T02:37:55.628Z,0
2023-05-16T02:41:20.845Z,0
2023-05-16T02:44:47.755Z,0
2023-05-16T02:48:13.021Z,0
2023-05-16T02:51:38.193Z,0
2023-05-16T02:55:20.857Z,0
2023-05-16T02:58:28.682Z,0
2023-05-16T03:01:53.947Z,0
2023-05-16T03:05:19.161Z,0
2023-05-16T03:08:44.413Z,0
2023-05-16T03:12:09.668Z,0
2023-05-16T03:15:35.863Z,0
2023-05-16T03:19:00.252Z,0
2023-05-16T03:22:25.393Z,0
2023-05-16T03:25:50.610Z,0
2023-05-16T03:29:15.915Z,0
2023-05-16T03:32:41.168Z,0
2023-05-16T03:36:06.354Z,0
2023-05-16T03:39:31.648Z,0
2023-05-16T03:42:56.847Z,0
2023-05-16T03:46:22.121Z,0
2023-05-16T03:49:47.289Z,0
2023-05-16T03:53:12.529Z,0
2023-05-16T03:56:37.760Z,0
2023-05-16T04:00:02.997Z,0
2023-05-16T04:03:28.474Z,0
2023-05-16T04:06:53.490Z,0
2023-05-16T04:10:18.718Z,0
2023-05-16T04:13:44.032Z,0
2023-05-16T04:17:09.315Z,0
2023-05-16T04:20:34.437Z,0
2023-05-16T04:23:59.688Z,0
2023-05-16T04:27:24.938Z,0
2023-05-16T04:30:50.193Z,0
2023-05-16T04:34:15.448Z,6
2023-05-16T04:37:40.707Z,6
2023-05-16T04:41:05.904Z,6
2023-05-16T04:44:31.148Z,6
2023-05-16T04:47:56.394Z,6
2023-05-16T04:51:21.609Z,11
2023-05-16T04:54:46.901Z,11
2023-05-16T04:58:12.091Z,11
2023-05-16T05:01:37.397Z,11
2023-05-16T05:05:02.671Z,11
2023-05-16T05:08:27.823Z,11
2023-05-16T05:11:53.098Z,11
2023-05-16T05:15:18.349Z,6
2023-05-16T05:18:43.677Z,6
2023-05-16T05:22:08.886Z,6
2023-05-16T05:25:35.900Z,6
2023-05-16T05:29:05.031Z,6
2023-05-16T05:32:24.760Z,6
2023-05-16T05:35:49.915Z,6
2023-05-16T05:39:15.145Z,6
2023-05-16T05:42:40.337Z,6
2023-05-16T05:46:05.641Z,6
2023-05-16T05:49:30.807Z,6
2023-05-16T05:52:57.141Z,6
2023-05-16T05:56:22.362Z,6
2023-05-16T05:59:47.637Z,11
2023-05-16T06:03:12.897Z,11
2023-05-16T06:06:38.130Z,6
2023-05-16T06:10:04.873Z,11
2023-05-16T06:13:28.598Z,11
2023-05-16T06:16:53.859Z,11
2023-05-16T06:20:19.125Z,11
2023-05-16T06:23:45.090Z,17
2023-05-16T06:27:10.344Z,17
2023-05-16T06:30:35.673Z,23
2023-05-16T06:34:00.921Z,28
2023-05-16T06:37:26.180Z,34
2023-05-16T06:40:51.427Z,28
2023-05-16T06:44:16.700Z,34
2023-05-16T06:47:41.998Z,28
2023-05-16T06:51:07.232Z,23
2023-05-16T06:54:32.566Z,17
2023-05-16T06:57:57.735Z,11
2023-05-16T07:01:23.010Z,11
2023-05-16T07:04:48.238Z,11
2023-05-16T07:08:13.465Z,17
2023-05-16T07:11:39.185Z,23
2023-05-16T07:15:04.301Z,23
2023-05-16T07:18:29.597Z,28
2023-05-16T07:21:54.928Z,23
2023-05-16T07:25:21.779Z,23
2023-05-16T07:28:47.072Z,34
2023-05-16T07:32:13.260Z,28
2023-05-16T07:35:38.462Z,28
2023-05-16T07:39:03.727Z,34
2023-05-16T07:42:28.965Z,34
2023-05-16T07:45:54.234Z,28
2023-05-16T07:49:19.400Z,23
2023-05-16T07:52:44.654Z,23
2023-05-16T07:56:09.934Z,23
2023-05-16T07:59:35.261Z,23
2023-05-16T08:03:00.537Z,28
2023-05-16T08:06:25.720Z,34
2023-05-16T08:09:50.943Z,34
2023-05-16T08:13:16.202Z,34
2023-05-16T08:16:41.559Z,28
2023-05-16T08:20:06.930Z,23
2023-05-16T08:23:33.105Z,28
2023-05-16T08:26:58.384Z,23
2023-05-16T08:30:23.644Z,28
2023-05-16T08:33:48.884Z,28
2023-05-16T08:37:15.943Z,28
2023-05-16T08:40:40.076Z,34
2023-05-16T08:44:05.490Z,34
2023-05-16T08:47:41.243Z,34
2023-05-16T08:51:06.475Z,17
2023-05-16T08:54:31.938Z,17
2023-05-16T08:57:57.044Z,17
2023-05-16T09:01:22.305Z,17
2023-05-16T09:04:47.515Z,23
2023-05-16T09:08:12.779Z,17
2023-05-16T09:11:38.102Z,17
2023-05-16T09:15:03.335Z,17
2023-05-16T09:18:28.652Z,17
2023-05-16T09:21:53.893Z,17
2023-05-16T09:25:29.047Z,17
2023-05-16T09:28:44.543Z,17
2023-05-16T09:32:09.872Z,17
2023-05-16T09:35:44.584Z,11
2023-05-16T09:39:00.315Z,17
2023-05-16T09:42:25.558Z,28
2023-05-16T09:45:50.838Z,17
2023-05-16T09:49:16.049Z,17
2023-05-16T09:52:41.260Z,23
2023-05-16T09:56:06.512Z,23
2023-05-16T09:59:31.940Z,17
2023-05-16T10:02:57.471Z,23
2023-05-16T10:06:22.564Z,23
2023-05-16T10:09:47.858Z,23
2023-05-16T10:13:13.140Z,17
2023-05-16T10:16:38.383Z,17
2023-05-16T10:20:03.890Z,17
2023-05-16T10:23:29.748Z,17
2023-05-16T10:26:55.006Z,17
2023-05-16T10:30:20.289Z,17
2023-05-16T10:33:45.547Z,11
2023-05-16T10:37:10.912Z,11
2023-05-16T10:40:36.011Z,11
2023-05-16T10:44:01.248Z,17
2023-05-16T10:47:26.501Z,11
2023-05-16T10:50:51.782Z,11
2023-05-16T10:54:17.126Z,11
2023-05-16T10:57:42.493Z,11
2023-05-16T11:01:07.778Z,11
2023-05-16T11:04:33.011Z,17
2023-05-16T11:07:58.273Z,17
2023-05-16T11:11:23.567Z,11
2023-05-16T11:14:48.795Z,11
2023-05-16T11:18:14.128Z,17
2023-05-16T11:21:39.284Z,11
2023-05-16T11:25:04.536Z,11
2023-05-16T11:28:30.047Z,11
2023-05-16T11:31:55.337Z,17
2023-05-16T11:35:20.539Z,34
2023-05-16T11:38:45.856Z,34
2023-05-16T11:42:11.101Z,23
2023-05-16T11:45:37.423Z,23
2023-05-16T11:49:02.564Z,23
2023-05-16T11:52:27.876Z,23
2023-05-16T11:55:55.635Z,45
2023-05-16T11:59:20.024Z,39
2023-05-16T12:02:45.415Z,28
2023-05-16T12:06:10.572Z,17
2023-05-16T12:09:35.847Z,17
2023-05-16T12:13:01.140Z,23
2023-05-16T12:16:26.396Z,11
2023-05-16T12:19:51.699Z,11
2023-05-16T12:23:16.839Z,28
2023-05-16T12:26:42.127Z,51
2023-05-16T12:30:07.423Z,23
2023-05-16T12:33:32.831Z,28
2023-05-16T12:36:58.038Z,11
2023-05-16T12:40:23.177Z,11
2023-05-16T12:43:48.402Z,11
2023-05-16T12:47:13.657Z,23
2023-05-16T12:50:39.194Z,23
2023-05-16T12:54:10.016Z,11
2023-05-16T12:57:30.279Z,11
2023-05-16T13:00:55.528Z,11
2023-05-16T13:04:20.795Z,11
2023-05-16T13:07:46.052Z,11
2023-05-16T13:11:11.388Z,11
2023-05-16T13:14:37.409Z,11
2023-05-16T13:18:02.733Z,11
2023-05-16T13:21:27.948Z,11
2023-05-16T13:24:53.199Z,11
2023-05-16T13:28:18.545Z,11
2023-05-16T13:31:43.696Z,17
2023-05-16T13:35:08.909Z,11
2023-05-16T13:38:35.090Z,11
2023-05-16T13:42:00.367Z,17
2023-05-16T13:45:25.922Z,11
2023-05-16T13:48:50.880Z,11
2023-05-16T13:52:16.098Z,17
2023-05-16T13:55:41.398Z,17
2023-05-16T13:59:07.395Z,23
2023-05-16T14:02:31.956Z,28
2023-05-16T14:05:57.174Z,23
2023-05-16T14:09:22.434Z,23
2023-05-16T14:12:47.678Z,28
2023-05-16T14:16:12.955Z,34
2023-05-16T14:19:38.362Z,34
2023-05-16T14:23:03.421Z,39
2023-05-16T14:26:28.688Z,45
2023-05-16T14:29:53.976Z,39
2023-05-16T14:33:20.000Z,28
2023-05-16T14:36:45.251Z,39
2023-05-16T14:40:10.488Z,45
2023-05-16T14:43:35.740Z,34
2023-05-16T14:47:01.058Z,34
2023-05-16T14:50:26.328Z,28
2023-05-16T14:53:52.227Z,23
2023-05-16T14:57:17.248Z,39
2023-05-16T15:00:43.350Z,45
2023-05-16T15:04:09.509Z,45
2023-05-16T15:07:34.755Z,45
2023-05-16T15:11:00.056Z,45
2023-05-16T15:47:21.538Z,17
2023-05-16T15:50:46.852Z,28
2023-05-16T15:54:16.287Z,28
2023-05-16T15:57:41.514Z,17
2023-05-16T16:01:06.733Z,11
2023-05-16T16:04:32.131Z,11
2023-05-16T16:07:57.246Z,17
2023-05-16T16:11:22.470Z,23
2023-05-16T16:14:47.697Z,23
2023-05-16T16:18:16.089Z,11
2023-05-16T16:21:41.549Z,6
2023-05-16T16:25:06.681Z,6
2023-05-16T16:28:31.987Z,6
2023-05-16T16:31:57.387Z,17
2023-05-16T16:35:22.602Z,11
2023-05-16T16:38:47.960Z,11
2023-05-16T16:42:13.118Z,17
2023-05-16T16:45:38.312Z,11
2023-05-16T16:49:04.196Z,6
2023-05-16T16:52:29.480Z,6
2023-05-16T16:55:54.906Z,6
2023-05-16T16:59:20.064Z,6
2023-05-16T17:02:45.426Z,6
2023-05-16T17:06:10.653Z,6
2023-05-16T17:09:35.976Z,11
2023-05-16T17:13:01.383Z,11
2023-05-16T17:16:26.826Z,11
2023-05-16T17:19:51.849Z,11
2023-05-16T17:23:17.162Z,11
2023-05-16T17:26:42.533Z,6
2023-05-16T17:30:08.128Z,6
2023-05-16T17:33:33.169Z,6
2023-05-16T17:36:58.510Z,6
2023-05-16T17:40:23.793Z,6
2023-05-16T17:43:49.151Z,6
2023-05-16T17:47:14.582Z,6
2023-05-16T17:50:39.668Z,6
2023-05-16T17:54:04.963Z,6
2023-05-16T17:57:30.306Z,6
2023-05-16T18:00:55.655Z,6
2023-05-16T18:04:21.031Z,6
2023-05-16T18:07:46.307Z,6
2023-05-16T18:11:11.599Z,6
2023-05-16T18:14:36.908Z,0
2023-05-16T18:18:02.378Z,0
2023-05-16T18:21:27.748Z,0
2023-05-16T18:24:52.939Z,0
2023-05-16T18:28:18.221Z,0
2023-05-16T18:31:43.526Z,0
2023-05-16T18:35:08.814Z,0
2023-05-16T18:38:34.346Z,0
2023-05-16T18:41:59.428Z,0
2023-05-16T18:45:24.743Z,0
2023-05-16T18:48:50.118Z,0
2023-05-16T18:52:15.345Z,0
2023-05-16T18:55:40.752Z,0
2023-05-16T18:59:05.957Z,0
2023-05-16T19:02:41.327Z,0
2023-05-16T19:05:56.770Z,0
2023-05-16T19:09:21.957Z,0
2023-05-16T19:12:47.318Z,0
2023-05-16T19:16:12.565Z,0
2023-05-16T19:19:37.955Z,0
2023-05-16T19:23:03.205Z,0
2023-05-16T19:26:28.432Z,0
2023-05-16T19:29:53.834Z,0
2023-05-16T19:33:19.009Z,0
2023-05-16T19:36:44.337Z,0
2023-05-16T19:40:09.621Z,0
2023-05-16T19:43:34.921Z,0
2023-05-16T19:47:00.257Z,0
2023-05-16T19:50:25.554Z,0
2023-05-16T19:53:50.774Z,0
2023-05-16T19:57:16.078Z,0
2023-05-16T20:00:41.343Z,0
2023-05-16T20:04:06.845Z,0
2023-05-16T20:07:31.900Z,0
2023-05-16T20:10:57.212Z,0
2023-05-16T20:14:22.485Z,0
2023-05-16T20:17:48.424Z,0
2023-05-16T20:21:13.791Z,0
2023-05-16T20:24:38.954Z,0
2023-05-16T20:28:04.213Z,0
2023-05-16T20:31:29.457Z,0
2023-05-16T20:34:54.694Z,0
2023-05-16T20:38:20.058Z,0
2023-05-16T20:41:45.244Z,0
2023-05-16T20:45:10.613Z,0
2023-05-16T20:48:35.861Z,0
2023-05-16T20:52:01.061Z,0
2023-05-16T20:55:26.559Z,0
2023-05-16T20:58:51.673Z,0
2023-05-16T21:02:16.962Z,0
2023-05-16T21:05:42.292Z,0
2023-05-16T21:09:07.499Z,0
2023-05-16T21:12:32.867Z,0
2023-05-16T21:15:57.995Z,0
2023-05-16T21:19:23.409Z,0
2023-05-16T21:22:48.521Z,0
2023-05-16T21:26:13.812Z,0
2023-05-16T21:29:39.183Z,0
2023-05-16T21:33:04.359Z,0
2023-05-16T21:36:29.587Z,0
2023-05-16T21:39:54.783Z,0
2023-05-16T21:43:20.083Z,0
2023-05-16T21:46:45.448Z,0
2023-05-16T21:50:10.631Z,0
2023-05-16T21:53:35.953Z,0
2023-05-16T21:57:01.221Z,0
2023-05-16T22:00:26.538Z,0
2023-05-16T22:03:52.095Z,0
2023-05-16T22:07:17.016Z,0
2023-05-16T22:10:42.261Z,0
2023-05-16T22:14:07.503Z,0
2023-05-16T22:17:32.785Z,0
2023-05-16T22:20:58.077Z,0
2023-05-16T22:24:23.169Z,0
2023-05-16T22:27:48.412Z,0
2023-05-16T22:31:13.648Z,0
2023-05-16T22:34:38.912Z,0
2023-05-16T22:38:04.164Z,0
2023-05-16T22:41:29.372Z,0
2023-05-16T22:44:54.628Z,0
2023-05-16T22:48:19.953Z,0
2023-05-16T22:51:45.150Z,0
2023-05-16T22:55:10.533Z,0
2023-05-16T22:58:35.650Z,0
2023-05-16T23:02:00.883Z,0
2023-05-16T23:05:26.321Z,0
2023-05-16T23:08:51.339Z,0
2023-05-16T23:12:16.566Z,0
2023-05-16T23:15:41.861Z,0
2023-05-16T23:19:09.211Z,0
2023-05-16T23:22:32.390Z,0
2023-05-16T23:25:57.661Z,0
2023-05-16T23:29:22.982Z,0
2023-05-16T23:32:48.191Z,0
2023-05-16T23:36:13.451Z,0
2023-05-16T23:39:38.816Z,0
2023-05-16T23:43:04.053Z,0
2023-05-16T23:46:29.323Z,0
2023-05-16T23:49:54.568Z,0
2023-05-16T23:53:19.790Z,0
2023-05-16T23:56:45.062Z,0
